MEM weather

Memphis International Airport
Memphis, Tennessee, United States

Public forecast

Using degrees Fahrenheit for public forecast. Weather courtesy of forecast.io.

Current aviation weather report (METAR) for Memphis International Airport

Retrieved 2020/02/23 16:54 UTC (40 minutes ago):

KMEM 231654Z 20009KT 10SM OVC065 11/01 A3020 RMK AO2 RAE13 SLP227 P0000 T01060011

Aviation forecast (TAF) for Memphis International Airport

Retrieved 2020/02/23 12:24 UTC (5 hours ago):

TAF KMEM 231122Z 2312/2418 19005KT P6SM BKN090 FM232000 19008KT P6SM VCSH OVC060 FM240100 16007KT P6SM -SHRA SCT025 OVC045 FM240500 16011KT 5SM -SHRA OVC018 FM240900 17011G19KT 5SM -SHRA OVC012 WS020/20050KT FM241400 18014G18KT 4SM -SHRA OVC008 WS020/20040KT